Time;durP1;ratioP1;P1;durP2;ratioP2;P2;SDS_P1;SDS_P2;PMS_P1;PMS_P2;Temp;Humidity;BMP_temperature;BMP_pressure;BME280_temperature;BME280_humidity;BME280_pressure;Samples;Min_cycle;Max_cycle;Signal;HPM_P1;HPM_P2
2021/12/22 00:01:35;;;;;;;57.20;23.42;;;-4.70;99.90;;;;;;4975794;28;20097;-86
2021/12/22 00:04:05;;;;;;;65.57;24.85;;;-4.80;99.90;;;;;;4975685;28;20042;-86
2021/12/22 00:06:33;;;;;;;67.38;25.55;;;-4.90;99.90;;;;;;4975736;28;20031;-86
2021/12/22 00:08:59;;;;;;;50.70;22.10;;;-5.00;99.90;;;;;;4975358;28;20038;-85
2021/12/22 00:11:26;;;;;;;65.07;26.48;;;-5.00;99.90;;;;;;4975639;28;20553;-86
2021/12/22 00:13:52;;;;;;;58.92;24.38;;;-5.10;99.90;;;;;;4975810;28;20031;-86
2021/12/22 00:16:18;;;;;;;73.03;27.02;;;-5.10;99.90;;;;;;4975533;28;20034;-86
2021/12/22 00:18:44;;;;;;;60.88;25.25;;;-5.10;99.90;;;;;;4976219;28;20035;-86
2021/12/22 00:21:10;;;;;;;54.58;23.90;;;-5.10;99.90;;;;;;4976450;28;20096;-85
2021/12/22 00:23:37;;;;;;;54.00;21.55;;;-5.20;99.90;;;;;;4976107;28;20019;-86
2021/12/22 00:26:04;;;;;;;59.25;23.40;;;-5.30;99.90;;;;;;4976300;28;20038;-85
2021/12/22 00:28:32;;;;;;;57.85;22.77;;;-5.20;99.90;;;;;;4975958;28;20552;-85
2021/12/22 00:31:00;;;;;;;54.53;20.73;;;-5.30;99.90;;;;;;4976176;28;20474;-85
2021/12/22 00:33:32;;;;;;;49.22;20.45;;;-5.30;99.90;;;;;;4960015;28;20109;-85
2021/12/22 00:35:57;;;;;;;48.40;21.02;;;-5.30;99.90;;;;;;4975866;28;20390;-84
2021/12/22 00:38:23;;;;;;;49.92;20.75;;;-5.40;99.90;;;;;;4975486;28;20034;-84
2021/12/22 00:40:50;;;;;;;56.45;22.77;;;-5.40;99.90;;;;;;4975473;28;20117;-85
2021/12/22 00:43:17;;;;;;;54.83;23.58;;;-5.40;99.90;;;;;;4975378;28;20530;-84
2021/12/22 00:45:43;;;;;;;57.70;22.60;;;-5.40;99.90;;;;;;4975600;28;20497;-85
2021/12/22 00:48:10;;;;;;;58.67;23.40;;;-5.40;99.90;;;;;;4975075;28;20082;-84
2021/12/22 00:50:37;;;;;;;61.65;24.98;;;-5.40;99.90;;;;;;4975441;28;20035;-85
2021/12/22 00:53:04;;;;;;;67.38;24.05;;;-5.40;99.90;;;;;;4975366;28;20037;-84
2021/12/22 00:55:30;;;;;;;57.58;25.73;;;-5.30;99.90;;;;;;4974875;28;20026;-84
2021/12/22 00:57:56;;;;;;;76.05;27.98;;;-5.20;99.90;;;;;;4975388;28;20382;-84
2021/12/22 01:00:24;;;;;;;61.20;24.27;;;-5.20;99.90;;;;;;4975278;28;20683;-84
2021/12/22 01:02:50;;;;;;;68.03;24.15;;;-5.30;99.90;;;;;;4959301;28;20031;-84
2021/12/22 01:05:16;;;;;;;62.72;23.42;;;-5.30;99.90;;;;;;4975338;28;20038;-85
2021/12/22 01:07:44;;;;;;;70.03;24.35;;;-5.30;99.90;;;;;;4975717;28;20077;-84
2021/12/22 01:10:12;;;;;;;60.30;23.90;;;-5.30;99.90;;;;;;4975410;28;20027;-85
2021/12/22 01:12:38;;;;;;;61.00;23.30;;;-5.40;99.90;;;;;;4959403;28;20034;-85
2021/12/22 01:15:08;;;;;;;55.55;22.65;;;-5.40;99.90;;;;;;4975103;28;20058;-85
2021/12/22 01:17:38;;;;;;;59.45;23.58;;;-5.40;99.90;;;;;;4958976;28;20082;-85
2021/12/22 01:20:16;;;;;;;61.58;25.08;;;-5.40;99.90;;;;;;4975113;28;20066;-85
2021/12/22 01:25:18;;;;;;;66.70;24.90;;;-5.40;99.90;;;;;;4962744;28;20051;-84
2021/12/22 01:27:44;;;;;;;63.78;24.17;;;-5.40;99.90;;;;;;4978967;28;20035;-84
2021/12/22 01:30:18;;;;;;;70.32;25.10;;;-5.30;99.90;;;;;;4978495;28;20034;-85
2021/12/22 01:32:44;;;;;;;63.80;25.08;;;-5.20;99.90;;;;;;4978589;28;20027;-85
2021/12/22 01:35:13;;;;;;;69.45;25.45;;;-5.20;99.90;;;;;;4978297;28;20041;-85
2021/12/22 01:37:39;;;;;;;73.72;26.55;;;-5.30;99.90;;;;;;4978818;28;20465;-86
2021/12/22 01:40:07;;;;;;;75.40;26.95;;;-5.40;99.90;;;;;;4978860;28;20038;-84
2021/12/22 01:42:33;;;;;;;69.80;26.73;;;-5.30;99.90;;;;;;4977952;28;20123;-85
2021/12/22 01:50:44;;;;;;;70.78;27.13;;;-5.50;99.90;;;;;;4961901;28;20038;-85
2021/12/22 01:53:21;;;;;;;65.60;25.60;;;-5.50;99.90;;;;;;4978515;28;20027;-85
2021/12/22 01:56:01;;;;;;;66.07;24.73;;;-5.60;99.90;;;;;;4962477;28;20085;-85
2021/12/22 01:58:36;;;;;;;72.70;27.00;;;-5.60;99.90;;;;;;4978486;28;20027;-85
2021/12/22 02:01:05;;;;;;;64.25;25.38;;;-5.60;99.90;;;;;;4978358;28;20041;-85
2021/12/22 02:03:31;;;;;;;66.57;25.92;;;-5.60;99.90;;;;;;4962286;28;20081;-85
2021/12/22 02:05:57;;;;;;;56.80;22.95;;;-5.70;99.90;;;;;;4978050;28;20031;-85
2021/12/22 02:08:23;;;;;;;59.83;24.95;;;-5.80;99.90;;;;;;4978357;28;20027;-85
2021/12/22 02:10:49;;;;;;;70.75;25.45;;;-5.80;99.90;;;;;;4978839;28;20037;-85
2021/12/22 02:13:22;;;;;;;59.50;27.13;;;-5.90;99.90;;;;;;4979033;28;20063;-85
2021/12/22 02:15:48;;;;;;;67.07;26.33;;;-5.90;99.90;;;;;;4978809;28;20043;-85
2021/12/22 02:18:18;;;;;;;59.38;25.70;;;-5.90;99.90;;;;;;4978907;28;20034;-85
2021/12/22 02:20:49;;;;;;;61.37;24.40;;;-5.80;99.90;;;;;;4979682;28;20046;-85
2021/12/22 02:23:16;;;;;;;68.53;24.77;;;-5.80;99.90;;;;;;4978337;28;20031;-85
2021/12/22 02:25:51;;;;;;;66.25;25.90;;;-5.80;99.90;;;;;;4977826;28;20125;-85
2021/12/22 02:28:22;;;;;;;66.10;25.27;;;-5.80;99.90;;;;;;4977544;28;20035;-85
2021/12/22 02:30:48;;;;;;;71.43;26.55;;;-5.70;99.90;;;;;;4977582;28;20122;-85
2021/12/22 02:38:29;;;;;;;59.22;24.92;;;-5.60;99.90;;;;;;4960922;28;20042;-85
2021/12/22 02:40:55;;;;;;;77.07;27.30;;;-5.60;99.90;;;;;;4977288;28;20451;-85
2021/12/22 02:43:23;;;;;;;75.35;25.02;;;-5.40;99.90;;;;;;4977259;28;20066;-85
2021/12/22 02:45:51;;;;;;;67.05;25.60;;;-5.40;99.90;;;;;;4977487;28;20386;-85
2021/12/22 02:48:18;;;;;;;63.67;26.23;;;-5.40;99.90;;;;;;4977474;28;20035;-85
2021/12/22 02:50:44;;;;;;;63.28;24.05;;;-5.50;99.90;;;;;;4977426;28;20509;-86
2021/12/22 02:53:15;;;;;;;61.80;24.65;;;-5.60;99.90;;;;;;4977239;28;20038;-85
2021/12/22 02:55:56;;;;;;;65.38;26.30;;;-5.80;99.90;;;;;;4976934;28;20046;-85
2021/12/22 02:58:40;;;;;;;62.45;24.65;;;-5.90;99.90;;;;;;4977277;28;20093;-85
2021/12/22 03:03:50;;;;;;;64.50;26.05;;;-6.10;99.90;;;;;;4960797;28;20037;-85
2021/12/22 03:06:27;;;;;;;60.00;24.17;;;-6.20;99.90;;;;;;4977490;28;20027;-85
2021/12/22 03:08:53;;;;;;;65.32;24.50;;;-6.20;99.90;;;;;;4977547;28;20062;-86
2021/12/22 03:11:19;;;;;;;66.70;24.05;;;-6.20;99.90;;;;;;4976543;28;20502;-85
2021/12/22 03:13:45;;;;;;;94.50;36.83;;;-6.30;99.90;;;;;;4977122;28;20019;-85
2021/12/22 03:16:11;;;;;;;132.35;42.78;;;-6.40;99.90;;;;;;4978569;28;20042;-85
2021/12/22 03:18:37;;;;;;;126.90;45.13;;;-6.40;99.90;;;;;;4977182;28;20039;-86
2021/12/22 03:21:17;;;;;;;115.20;40.97;;;-6.40;99.90;;;;;;4976599;28;20677;-86
2021/12/22 03:23:43;;;;;;;110.80;43.00;;;-6.40;99.90;;;;;;4976722;28;20130;-84
2021/12/22 03:26:09;;;;;;;91.10;37.40;;;-6.50;99.90;;;;;;4976547;28;20066;-85
2021/12/22 03:28:35;;;;;;;74.65;30.48;;;-6.40;99.90;;;;;;4976850;28;20471;-84
2021/12/22 03:31:02;;;;;;;68.57;28.83;;;-6.30;99.90;;;;;;4976953;28;20426;-84
2021/12/22 03:33:27;;;;;;;74.68;29.38;;;-6.20;99.90;;;;;;4977155;28;20050;-85
2021/12/22 03:35:53;;;;;;;75.95;30.13;;;-6.20;99.90;;;;;;4976627;28;20027;-85
2021/12/22 03:38:19;;;;;;;72.93;29.75;;;-6.20;99.90;;;;;;4976958;28;20066;-85
2021/12/22 03:40:45;;;;;;;73.90;30.52;;;-6.30;99.90;;;;;;4976393;28;20077;-85
2021/12/22 03:43:10;;;;;;;73.55;29.58;;;-6.20;99.90;;;;;;4976786;28;20430;-85
2021/12/22 03:45:36;;;;;;;62.38;27.23;;;-6.20;99.90;;;;;;4976400;28;20118;-85
2021/12/22 03:48:02;;;;;;;70.32;28.75;;;-6.20;99.90;;;;;;4977881;28;20113;-85
2021/12/22 03:50:28;;;;;;;63.33;27.45;;;-6.20;99.90;;;;;;4976265;28;20033;-85
2021/12/22 03:52:53;;;;;;;80.00;29.50;;;-6.20;99.90;;;;;;4976783;28;20030;-85
2021/12/22 03:55:19;;;;;;;80.57;29.85;;;-6.20;99.90;;;;;;4976833;28;20406;-85
2021/12/22 03:57:45;;;;;;;70.32;28.73;;;-6.20;99.90;;;;;;4976897;28;20027;-85
2021/12/22 04:00:12;;;;;;;80.75;28.65;;;-6.20;99.90;;;;;;4976789;28;20072;-86
2021/12/22 04:02:57;;;;;;;80.75;29.58;;;-6.20;99.90;;;;;;4976731;28;20559;-86
2021/12/22 04:05:23;;;;;;;75.45;26.75;;;-6.10;99.90;;;;;;4976610;28;20069;-86
2021/12/22 04:07:50;;;;;;;77.35;28.48;;;-6.10;99.90;;;;;;4977870;28;20023;-85
2021/12/22 04:10:20;;;;;;;73.22;29.95;;;-6.20;99.90;;;;;;4976765;28;20031;-85
2021/12/22 04:12:47;;;;;;;86.00;30.58;;;-6.20;99.90;;;;;;4977711;28;20381;-85
2021/12/22 04:15:13;;;;;;;71.05;30.35;;;-6.20;99.90;;;;;;4975621;28;20479;-86
2021/12/22 04:17:38;;;;;;;85.45;35.50;;;-6.20;99.90;;;;;;4976324;28;20046;-86
2021/12/22 04:20:04;;;;;;;118.72;41.13;;;-6.20;99.90;;;;;;4976502;28;20034;-85
2021/12/22 04:22:30;;;;;;;117.82;44.53;;;-6.10;99.90;;;;;;4975651;28;20066;-86
2021/12/22 04:24:56;;;;;;;118.75;42.72;;;-6.00;99.90;;;;;;4976534;28;20038;-85
2021/12/22 04:27:21;;;;;;;93.88;35.10;;;-5.90;99.90;;;;;;4976237;28;20121;-86
2021/12/22 04:29:47;;;;;;;88.85;36.70;;;-5.90;99.90;;;;;;4976617;28;20419;-86
2021/12/22 04:32:13;;;;;;;100.85;35.00;;;-5.80;99.90;;;;;;4975637;28;20074;-85
2021/12/22 04:34:39;;;;;;;82.90;33.33;;;-5.80;99.90;;;;;;4975846;28;20035;-85
2021/12/22 04:37:04;;;;;;;82.03;32.25;;;-5.80;99.90;;;;;;4976081;28;20105;-85
2021/12/22 04:39:32;;;;;;;87.50;34.58;;;-5.70;99.90;;;;;;4975944;28;20062;-86
2021/12/22 04:41:59;;;;;;;87.22;32.78;;;-5.60;99.90;;;;;;4975791;28;20034;-85
2021/12/22 04:44:25;;;;;;;79.93;31.05;;;-5.70;99.90;;;;;;4976198;28;20609;-85
2021/12/22 04:46:50;;;;;;;89.50;33.75;;;-5.60;99.90;;;;;;4975884;28;20066;-85
2021/12/22 04:49:16;;;;;;;83.70;33.40;;;-5.60;99.90;;;;;;4975642;28;20027;-85
2021/12/22 04:51:49;;;;;;;90.43;34.47;;;-5.50;99.90;;;;;;4975607;28;20067;-86
2021/12/22 04:54:19;;;;;;;75.88;32.05;;;-5.50;99.90;;;;;;4975581;28;20100;-86
2021/12/22 04:56:45;;;;;;;100.13;34.72;;;-5.50;99.90;;;;;;4976826;28;20045;-85
2021/12/22 04:59:11;;;;;;;85.13;34.17;;;-5.40;99.90;;;;;;4973914;28;20043;-86
2021/12/22 05:01:37;;;;;;;98.35;35.60;;;-5.40;99.90;;;;;;4974920;28;20464;-85
2021/12/22 05:04:03;;;;;;;92.88;35.70;;;-5.40;99.90;;;;;;4975490;28;20046;-85
2021/12/22 05:06:29;;;;;;;92.32;35.97;;;-5.40;99.90;;;;;;4975466;28;20038;-85
2021/12/22 05:08:54;;;;;;;90.40;35.05;;;-5.30;99.90;;;;;;4974922;28;20559;-85
2021/12/22 05:11:20;;;;;;;91.15;33.58;;;-5.30;99.90;;;;;;4974413;28;20038;-86
2021/12/22 05:14:04;;;;;;;87.38;36.63;;;-5.30;99.90;;;;;;4975147;28;20121;-85
2021/12/22 05:16:30;;;;;;;87.43;34.58;;;-5.30;99.90;;;;;;4974656;28;20085;-85
2021/12/22 05:19:14;;;;;;;94.68;35.03;;;-5.20;99.90;;;;;;4974982;28;20031;-85
2021/12/22 05:21:44;;;;;;;91.65;36.72;;;-5.10;99.90;;;;;;4975613;28;20045;-85
2021/12/22 05:24:10;;;;;;;92.85;37.70;;;-5.10;99.90;;;;;;4974962;28;20051;-84
2021/12/22 05:26:36;;;;;;;97.15;37.72;;;-5.00;99.90;;;;;;4958167;28;20071;-85
2021/12/22 05:29:02;;;;;;;100.05;37.22;;;-5.00;99.90;;;;;;4974540;28;20086;-84
2021/12/22 05:31:28;;;;;;;86.53;35.22;;;-5.10;99.90;;;;;;4974820;28;20500;-85
2021/12/22 05:33:55;;;;;;;95.03;35.20;;;-5.20;99.90;;;;;;4974895;28;20114;-85
2021/12/22 05:36:21;;;;;;;94.03;36.80;;;-5.30;99.90;;;;;;4975165;28;20549;-84
2021/12/22 05:38:47;;;;;;;102.53;37.92;;;-5.30;99.90;;;;;;4974701;28;20023;-85
2021/12/22 05:41:12;;;;;;;93.15;37.08;;;-5.30;99.90;;;;;;4975543;28;20023;-85
2021/12/22 05:43:38;;;;;;;95.22;36.22;;;-5.30;99.90;;;;;;4974290;28;20043;-85
2021/12/22 05:46:04;;;;;;;91.72;35.38;;;-5.30;99.90;;;;;;4975723;28;20119;-85
2021/12/22 05:48:30;;;;;;;83.75;35.10;;;-5.40;99.90;;;;;;4975423;28;20098;-85
2021/12/22 05:51:01;;;;;;;92.25;35.00;;;-5.50;99.90;;;;;;4975303;28;20046;-85
2021/12/22 05:53:27;;;;;;;89.55;35.50;;;-5.50;99.90;;;;;;4974081;28;20042;-85
2021/12/22 05:55:55;;;;;;;97.45;38.20;;;-5.50;99.90;;;;;;4974378;28;20039;-84
2021/12/22 05:58:22;;;;;;;91.95;34.03;;;-5.60;99.90;;;;;;4957816;28;20035;-84
2021/12/22 06:00:48;;;;;;;87.28;36.10;;;-5.70;99.90;;;;;;4958326;28;20086;-85
2021/12/22 06:03:14;;;;;;;96.38;36.25;;;-5.70;99.90;;;;;;4974339;28;20070;-84
2021/12/22 06:05:40;;;;;;;95.40;36.17;;;-5.70;99.90;;;;;;4974669;28;20097;-84
2021/12/22 06:08:06;;;;;;;102.25;36.38;;;-5.70;99.90;;;;;;4973745;28;20030;-85
2021/12/22 06:10:34;;;;;;;91.28;36.20;;;-5.80;99.90;;;;;;4977138;28;20143;-84
2021/12/22 06:13:08;;;;;;;89.78;35.35;;;-5.80;99.90;;;;;;4978449;28;20176;-85
2021/12/22 06:15:35;;;;;;;96.28;36.50;;;-5.80;99.90;;;;;;4978282;28;20123;-84
2021/12/22 06:18:03;;;;;;;90.35;35.95;;;-5.80;99.90;;;;;;4978343;28;20011;-84
2021/12/22 06:20:30;;;;;;;91.65;38.05;;;-5.80;99.90;;;;;;4978589;28;20035;-85
2021/12/22 06:22:56;;;;;;;107.32;39.63;;;-5.80;99.90;;;;;;4978373;28;20034;-84
2021/12/22 06:25:23;;;;;;;100.80;38.70;;;-5.80;99.90;;;;;;4977534;28;20030;-84
2021/12/22 06:27:49;;;;;;;107.18;40.90;;;-5.80;99.90;;;;;;4978426;28;20027;-85
2021/12/22 06:30:15;;;;;;;101.82;38.63;;;-5.90;99.90;;;;;;4978002;28;20031;-84
2021/12/22 06:32:40;;;;;;;103.85;38.25;;;-5.90;99.90;;;;;;4978039;28;20506;-84
2021/12/22 06:35:07;;;;;;;103.55;38.60;;;-5.90;99.90;;;;;;4961955;28;20125;-84
2021/12/22 06:37:33;;;;;;;108.00;39.72;;;-6.00;99.90;;;;;;4979128;28;20035;-85
2021/12/22 06:39:58;;;;;;;109.35;40.63;;;-6.00;99.90;;;;;;4977868;28;20026;-86
2021/12/22 06:42:25;;;;;;;98.60;39.20;;;-6.00;99.90;;;;;;4978145;28;20031;-85
2021/12/22 06:44:51;;;;;;;104.10;39.25;;;-6.00;99.90;;;;;;4977089;28;20038;-85
2021/12/22 06:47:17;;;;;;;103.68;39.08;;;-6.10;99.90;;;;;;4977564;28;20027;-84
2021/12/22 06:49:43;;;;;;;103.15;38.10;;;-6.20;99.90;;;;;;4978023;28;20041;-85
2021/12/22 06:52:09;;;;;;;98.90;38.90;;;-6.30;99.90;;;;;;4978439;28;20074;-85
2021/12/22 06:54:36;;;;;;;98.03;38.05;;;-6.30;99.90;;;;;;4980066;28;20111;-86
2021/12/22 06:57:02;;;;;;;89.03;36.13;;;-6.30;99.90;;;;;;4978348;28;20089;-85
2021/12/22 06:59:29;;;;;;;99.10;37.72;;;-6.40;99.90;;;;;;4978391;28;20125;-85
2021/12/22 07:01:54;;;;;;;101.15;39.35;;;-6.40;99.90;;;;;;4977950;28;20065;-86
2021/12/22 07:04:20;;;;;;;97.68;37.83;;;-6.40;99.90;;;;;;4977254;28;20064;-86
2021/12/22 07:06:46;;;;;;;97.55;38.60;;;-6.40;99.90;;;;;;4977532;28;20026;-85
2021/12/22 07:09:12;;;;;;;99.53;40.13;;;-6.40;99.90;;;;;;4977261;28;20506;-85
2021/12/22 07:11:39;;;;;;;104.68;39.92;;;-6.40;99.90;;;;;;4977538;28;20026;-85
2021/12/22 07:14:07;;;;;;;100.38;37.85;;;-6.50;99.90;;;;;;4976648;28;20557;-85
2021/12/22 07:16:34;;;;;;;119.60;42.47;;;-6.40;99.90;;;;;;4977614;28;20058;-85
2021/12/22 07:18:59;;;;;;;125.35;43.15;;;-6.30;99.90;;;;;;4977433;28;20041;-85
2021/12/22 07:21:26;;;;;;;102.47;39.45;;;-6.20;99.90;;;;;;4976159;28;20137;-85
2021/12/22 07:23:52;;;;;;;116.22;40.88;;;-6.10;99.90;;;;;;4959849;28;20031;-85
2021/12/22 07:26:18;;;;;;;109.97;41.30;;;-6.10;99.90;;;;;;4976395;28;20490;-85
2021/12/22 07:28:46;;;;;;;108.45;40.30;;;-6.00;99.90;;;;;;4976187;28;20033;-84
2021/12/22 07:31:14;;;;;;;116.65;42.75;;;-6.00;99.90;;;;;;4977203;28;20488;-85
2021/12/22 07:33:51;;;;;;;118.20;43.38;;;-6.00;99.90;;;;;;4976855;28;20151;-86
2021/12/22 07:36:17;;;;;;;129.88;42.88;;;-5.90;99.90;;;;;;4976364;28;20058;-84
2021/12/22 07:39:07;;;;;;;126.13;44.13;;;-5.80;99.90;;;;;;4975613;28;20545;-85
2021/12/22 07:41:33;;;;;;;124.13;43.85;;;-5.70;99.90;;;;;;4974799;28;20478;-85
2021/12/22 07:43:58;;;;;;;115.43;43.25;;;-5.70;99.90;;;;;;4975240;28;20045;-82
2021/12/22 07:46:24;;;;;;;119.10;43.28;;;-5.60;99.90;;;;;;4977191;28;20054;-84
2021/12/22 07:48:50;;;;;;;121.38;44.88;;;-5.60;99.90;;;;;;4975542;28;20064;-83
2021/12/22 07:51:16;;;;;;;120.22;44.75;;;-5.50;99.90;;;;;;4975407;28;20023;-83
2021/12/22 07:53:42;;;;;;;120.03;45.20;;;-5.50;99.90;;;;;;4974960;28;20031;-84
2021/12/22 07:56:08;;;;;;;129.80;44.03;;;-5.50;99.90;;;;;;4974155;28;20039;-84
2021/12/22 07:58:34;;;;;;;131.35;44.28;;;-5.50;99.90;;;;;;4974481;28;20513;-84
2021/12/22 08:01:15;;;;;;;120.20;42.85;;;-5.50;99.90;;;;;;4974583;28;20475;-84
2021/12/22 08:03:40;;;;;;;128.45;44.10;;;-5.30;99.90;;;;;;4974456;28;20031;-84
2021/12/22 08:06:06;;;;;;;133.00;44.25;;;-5.20;99.90;;;;;;4974133;28;20134;-84
2021/12/22 08:08:32;;;;;;;128.50;45.63;;;-5.20;99.90;;;;;;4974562;28;20062;-82
2021/12/22 08:10:58;;;;;;;126.55;45.60;;;-5.10;99.90;;;;;;4974312;28;20811;-82
2021/12/22 08:13:24;;;;;;;124.30;47.05;;;-5.10;99.90;;;;;;4974028;28;20532;-83
2021/12/22 08:15:49;;;;;;;157.32;47.67;;;-5.00;99.90;;;;;;4974027;28;20031;-82
2021/12/22 08:18:15;;;;;;;130.18;45.15;;;-4.90;99.90;;;;;;4973614;28;20479;-83
2021/12/22 08:20:41;;;;;;;124.28;44.90;;;-4.80;99.90;;;;;;4974241;28;20035;-82
2021/12/22 08:23:06;;;;;;;147.02;48.85;;;-4.60;99.90;;;;;;4973355;28;20042;-82
2021/12/22 08:25:32;;;;;;;138.07;48.15;;;-4.50;99.90;;;;;;4973732;28;20026;-82
2021/12/22 08:27:58;;;;;;;123.78;46.00;;;-4.40;99.90;;;;;;4974095;28;20026;-83
2021/12/22 08:30:24;;;;;;;126.85;46.05;;;-4.30;99.90;;;;;;4974195;28;20031;-83
2021/12/22 08:32:50;;;;;;;130.48;48.05;;;-4.20;99.90;;;;;;4974107;28;20058;-84
2021/12/22 08:35:17;;;;;;;120.18;44.38;;;-4.00;99.90;;;;;;4974056;28;20479;-83
2021/12/22 08:40:27;;;;;;;118.40;44.83;;;-3.70;99.90;;;;;;4975165;28;20719;-82
2021/12/22 08:42:53;;;;;;;117.53;44.90;;;-3.70;99.90;;;;;;4974228;28;20035;-84
2021/12/22 08:45:19;;;;;;;111.13;42.63;;;-3.80;99.90;;;;;;4975292;28;20035;-83
2021/12/22 08:47:46;;;;;;;109.68;42.72;;;-3.80;99.90;;;;;;4974677;28;20026;-84
2021/12/22 08:50:15;;;;;;;103.78;42.45;;;-3.70;99.90;;;;;;4959013;28;20027;-83
2021/12/22 08:52:42;;;;;;;99.32;38.78;;;-3.70;99.90;;;;;;4976103;28;20038;-84
2021/12/22 08:55:08;;;;;;;93.72;37.08;;;-3.60;99.90;;;;;;4957695;28;20034;-84
2021/12/22 08:57:34;;;;;;;103.90;37.90;;;-3.60;99.90;;;;;;4973672;28;20026;-84
2021/12/22 09:00:05;;;;;;;91.78;37.92;;;-3.50;99.90;;;;;;4973687;28;20035;-84
2021/12/22 09:02:31;;;;;;;87.72;35.70;;;-3.50;99.90;;;;;;4973494;28;20125;-83
2021/12/22 09:04:56;;;;;;;92.05;37.67;;;-3.40;99.90;;;;;;4972751;28;20482;-83
2021/12/22 09:07:22;;;;;;;91.15;37.92;;;-3.40;99.90;;;;;;4973388;28;20027;-84
2021/12/22 09:09:48;;;;;;;79.00;32.85;;;-3.30;99.90;;;;;;4973168;28;20122;-83
2021/12/22 09:12:14;;;;;;;85.50;36.42;;;-3.20;99.90;;;;;;4973368;28;20169;-83
2021/12/22 09:14:40;;;;;;;76.45;32.90;;;-3.20;99.90;;;;;;4973264;28;20035;-83
2021/12/22 09:17:06;;;;;;;84.85;33.95;;;-3.10;99.90;;;;;;4956729;28;20084;-84
2021/12/22 09:19:32;;;;;;;79.93;32.17;;;-3.20;99.90;;;;;;4973277;28;20027;-84
2021/12/22 09:21:57;;;;;;;67.93;30.45;;;-3.10;99.90;;;;;;4972893;28;20035;-84
2021/12/22 09:24:23;;;;;;;76.60;32.22;;;-3.10;99.90;;;;;;4972636;28;20122;-84
2021/12/22 09:26:49;;;;;;;73.45;31.08;;;-3.10;99.90;;;;;;4972798;28;20049;-83
2021/12/22 09:29:15;;;;;;;76.80;31.05;;;-3.00;99.90;;;;;;4973496;28;20031;-84
2021/12/22 09:31:40;;;;;;;75.82;31.60;;;-3.00;99.90;;;;;;4973092;28;20506;-82
2021/12/22 09:34:07;;;;;;;74.63;30.77;;;-2.90;99.90;;;;;;4972742;28;20070;-83
2021/12/22 09:36:33;;;;;;;71.45;32.47;;;-2.90;99.90;;;;;;4972920;28;20030;-82
2021/12/22 09:38:59;;;;;;;78.40;33.60;;;-2.90;99.90;;;;;;4972993;28;20081;-83
2021/12/22 09:41:24;;;;;;;80.10;35.00;;;-2.70;99.90;;;;;;4972588;28;20053;-83
2021/12/22 09:43:55;;;;;;;76.35;32.72;;;-2.50;99.90;;;;;;4972930;28;20028;-83
2021/12/22 09:46:23;;;;;;;78.90;35.75;;;-2.10;99.90;;;;;;4977054;28;20034;-83
2021/12/22 09:48:53;;;;;;;73.38;34.30;;;-1.70;99.90;;;;;;4977917;28;20498;-84
2021/12/22 09:53:51;;;;;;;106.68;44.03;;;-0.80;99.90;;;;;;4961464;28;20081;-83
2021/12/22 09:56:24;;;;;;;107.32;43.17;;;-0.90;99.90;;;;;;4976501;28;20035;-85
2021/12/22 09:58:51;;;;;;;74.15;34.00;;;-0.70;99.90;;;;;;4976549;28;20125;-85
2021/12/22 10:01:23;;;;;;;71.53;32.08;;;-0.70;99.90;;;;;;4976145;28;20038;-84
2021/12/22 10:03:53;;;;;;;109.40;43.22;;;-0.40;99.90;;;;;;4977623;28;20030;-83
2021/12/22 10:06:19;;;;;;;55.03;26.15;;;-0.20;99.90;;;;;;4976065;28;20054;-83
2021/12/22 10:08:59;;;;;;;108.80;42.72;;;-0.40;99.90;;;;;;4976220;28;20039;-83
2021/12/22 10:11:28;;;;;;;76.97;33.88;;;-0.40;99.90;;;;;;4960249;28;20049;-82
2021/12/22 10:13:54;;;;;;;82.50;38.10;;;-0.20;99.90;;;;;;4975811;28;20035;-83
2021/12/22 10:16:24;;;;;;;47.45;25.45;;;-0.20;99.90;;;;;;4976603;28;20030;-84
2021/12/22 10:19:06;;;;;;;48.70;25.30;;;-0.30;99.90;;;;;;4976278;28;20109;-83
2021/12/22 10:21:33;;;;;;;40.83;22.65;;;-0.20;99.90;;;;;;4976955;28;20828;-83
2021/12/22 10:24:02;;;;;;;44.58;23.52;;;-0.50;99.90;;;;;;4978622;28;20055;-84
2021/12/22 10:26:28;;;;;;;40.72;20.75;;;-0.50;99.90;;;;;;4975705;28;20506;-85
2021/12/22 10:29:00;;;;;;;62.75;30.90;;;-0.40;99.90;;;;;;4976467;28;20054;-84
2021/12/22 10:31:48;;;;;;;63.15;30.02;;;-0.30;99.90;;;;;;4976275;28;20035;-84
2021/12/22 10:34:19;;;;;;;66.65;32.47;;;-0.30;99.90;;;;;;4980028;28;20630;-86
2021/12/22 10:36:52;;;;;;;43.15;22.00;;;-0.30;99.90;;;;;;4977025;28;20061;-85
2021/12/22 10:39:22;;;;;;;35.70;20.83;;;-0.40;99.90;;;;;;4976052;28;20375;-85
2021/12/22 10:41:49;;;;;;;43.08;22.92;;;-0.60;99.90;;;;;;4976063;28;20035;-85
2021/12/22 10:44:15;;;;;;;41.90;21.60;;;-0.80;99.90;;;;;;4975894;28;20037;-85
2021/12/22 10:46:41;;;;;;;42.33;21.38;;;-1.00;99.90;;;;;;4976118;28;20031;-86
2021/12/22 10:49:14;;;;;;;42.40;21.63;;;-1.10;99.90;;;;;;4975819;28;20604;-85
2021/12/22 10:51:44;;;;;;;50.75;25.38;;;-1.20;99.90;;;;;;4974755;28;20037;-86
2021/12/22 10:54:13;;;;;;;45.38;22.50;;;-1.40;99.90;;;;;;4975432;28;20034;-86
2021/12/22 10:56:43;;;;;;;50.53;23.92;;;-1.40;99.90;;;;;;4976028;28;20034;-86
2021/12/22 10:59:16;;;;;;;52.70;23.38;;;-1.40;99.90;;;;;;4981331;28;20031;-86
2021/12/22 11:01:56;;;;;;;51.28;22.73;;;-1.40;99.90;;;;;;4975112;28;20453;-84
2021/12/22 11:04:27;;;;;;;44.83;22.35;;;-1.30;99.90;;;;;;4958839;28;20031;-84
2021/12/22 11:06:56;;;;;;;45.92;22.95;;;-1.30;99.90;;;;;;4974757;28;20042;-84
2021/12/22 11:09:23;;;;;;;42.60;22.98;;;-1.20;99.90;;;;;;4975273;28;20836;-85
2021/12/22 11:11:57;;;;;;;41.40;20.13;;;-1.10;99.90;;;;;;4974963;28;20031;-87
2021/12/22 11:14:28;;;;;;;41.03;20.00;;;-1.00;99.90;;;;;;4975125;28;20487;-85
2021/12/22 11:17:04;;;;;;;41.67;21.92;;;-1.10;99.90;;;;;;4974865;28;20046;-86
2021/12/22 11:19:34;;;;;;;59.63;26.83;;;-1.10;99.90;;;;;;4975086;28;20043;-85
2021/12/22 11:22:14;;;;;;;55.10;27.10;;;-0.80;99.90;;;;;;4959101;28;20041;-85
2021/12/22 11:24:52;;;;;;;67.93;28.58;;;-0.70;99.90;;;;;;4974330;28;20486;-85
2021/12/22 11:27:26;;;;;;;54.42;24.13;;;-0.90;99.90;;;;;;4963166;28;20402;-85
2021/12/22 11:29:57;;;;;;;71.70;29.88;;;-1.10;99.90;;;;;;4975197;28;20038;-85
2021/12/22 11:32:26;;;;;;;44.85;21.48;;;-1.10;99.90;;;;;;4974769;28;20031;-85
2021/12/22 11:34:55;;;;;;;39.78;20.40;;;-1.00;99.90;;;;;;4944078;28;20031;-85
2021/12/22 11:37:22;;;;;;;46.08;22.40;;;-0.90;99.90;;;;;;4974786;28;20156;-85
2021/12/22 11:39:49;;;;;;;38.38;18.60;;;-0.80;99.90;;;;;;4974707;28;20074;-85
2021/12/22 11:42:15;;;;;;;36.30;18.20;;;-0.70;99.90;;;;;;4974467;28;20442;-85
2021/12/22 11:44:47;;;;;;;33.47;18.13;;;-0.40;99.90;;;;;;4974522;28;20398;-85
2021/12/22 11:47:15;;;;;;;36.97;17.35;;;-0.10;99.90;;;;;;4974627;28;20450;-85
2021/12/22 11:49:59;;;;;;;29.45;15.90;;;0.10;99.90;;;;;;4974438;28;20379;-85
2021/12/22 11:52:31;;;;;;;32.08;16.08;;;0.40;99.90;;;;;;4974667;28;20035;-85
2021/12/22 11:55:06;;;;;;;29.42;15.68;;;0.20;99.90;;;;;;4942732;28;20030;-85
2021/12/22 11:57:31;;;;;;;31.98;16.75;;;-0.20;99.90;;;;;;4942929;28;20379;-85
2021/12/22 11:59:57;;;;;;;30.10;17.70;;;-0.50;99.90;;;;;;4974767;28;20089;-85
2021/12/22 12:02:32;;;;;;;32.67;16.55;;;-0.80;99.90;;;;;;4974613;28;20134;-85
2021/12/22 12:05:24;;;;;;;36.47;18.40;;;-1.00;99.90;;;;;;4974079;28;20559;-84
2021/12/22 12:07:53;;;;;;;35.30;16.92;;;-1.10;99.90;;;;;;4974371;28;20031;-85
2021/12/22 12:10:34;;;;;;;36.65;17.58;;;-1.20;99.90;;;;;;4974680;28;20035;-85
2021/12/22 12:13:06;;;;;;;;;;;-1.40;99.90;;;;;;4974694;28;20038;-85
2021/12/22 12:21:55;;;;;;;40.83;18.38;;;-1.50;99.90;;;;;;4957816;28;20413;-86
2021/12/22 12:24:34;;;;;;;41.92;18.38;;;-1.50;99.90;;;;;;4941823;28;20057;-85
2021/12/22 12:27:04;;;;;;;39.95;19.63;;;-1.50;99.90;;;;;;4974141;28;20035;-87
2021/12/22 12:30:01;;;;;;;43.00;20.05;;;-1.50;99.90;;;;;;4974333;28;20042;-86
2021/12/22 12:32:38;;;;;;;37.83;18.05;;;-1.60;99.90;;;;;;4941594;28;20045;-86
2021/12/22 12:35:20;;;;;;;43.50;18.55;;;-1.50;99.90;;;;;;4941561;28;20548;-85
2021/12/22 12:38:04;;;;;;;36.33;18.52;;;-1.50;99.90;;;;;;4941796;28;20041;-85
2021/12/22 12:40:54;;;;;;;33.97;16.55;;;-1.50;99.90;;;;;;4957624;28;20133;-86
2021/12/22 12:43:42;;;;;;;38.47;17.20;;;-1.50;99.90;;;;;;4940980;28;20039;-86
2021/12/22 12:48:51;;;;;;;41.67;19.15;;;-1.40;99.90;;;;;;4959699;28;20081;-86
2021/12/22 12:51:29;;;;;;;36.33;17.80;;;-1.30;99.90;;;;;;4957781;28;20089;-85
2021/12/22 12:53:58;;;;;;;39.38;18.40;;;-1.30;99.90;;;;;;4957173;28;20054;-86
2021/12/22 12:56:31;;;;;;;37.80;17.17;;;-1.30;99.90;;;;;;4941855;28;20031;-85
2021/12/22 12:59:06;;;;;;;37.90;17.92;;;-1.20;99.90;;;;;;4957711;28;20043;-85
2021/12/22 13:01:47;;;;;;;37.42;17.90;;;-1.30;99.90;;;;;;4957903;28;20126;-85
2021/12/22 13:04:36;;;;;;;35.70;16.75;;;-1.20;99.90;;;;;;4943296;28;20434;-85